Time;durP1;ratioP1;P1;durP2;ratioP2;P2;SDS_P1;SDS_P2;PMS_P1;PMS_P2;Temp;Humidity;BMP_temperature;BMP_pressure;BME280_temperature;BME280_humidity;BME280_pressure;Samples;Min_cycle;Max_cycle;Signal;HPM_P1;HPM_P2
2022/06/12 00:02:44;;;;;;;36.05;10.65;;;;;;;29.23;52.98;97193.09;4891384;29;20045;-66
2022/06/12 00:05:36;;;;;;;30.52;10.35;;;;;;;29.17;53.36;97208.00;4892323;29;20072;-66
2022/06/12 00:08:19;;;;;;;50.92;14.55;;;;;;;29.17;53.59;97220.44;4892090;29;20060;-66
2022/06/12 00:11:11;;;;;;;34.85;11.18;;;;;;;29.16;55.20;97213.50;4891859;29;20116;-66
2022/06/12 00:14:00;;;;;;;45.90;11.40;;;;;;;29.16;55.00;97205.53;4875467;29;20599;-66
2022/06/12 00:16:52;;;;;;;35.80;11.88;;;;;;;29.14;53.50;97207.56;4872435;29;20045;-66
2022/06/12 00:19:44;;;;;;;40.20;13.43;;;;;;;29.18;55.60;97220.25;4872925;29;20057;-67
2022/06/12 00:22:26;;;;;;;49.63;14.10;;;;;;;29.20;55.03;97228.00;4863247;29;20064;-66
2022/06/12 00:25:18;;;;;;;40.42;14.07;;;;;;;29.21;54.41;97227.00;4854269;29;20077;-66
2022/06/12 00:28:00;;;;;;;40.90;13.95;;;;;;;29.22;54.30;97237.38;4853042;29;20077;-66
2022/06/12 00:30:49;;;;;;;40.45;14.07;;;;;;;29.28;57.73;97247.22;4853967;29;20045;-66
2022/06/12 00:33:32;;;;;;;55.28;16.92;;;;;;;29.34;56.76;97242.94;4870192;29;20057;-66
2022/06/12 00:36:20;;;;;;;49.03;15.57;;;;;;;29.38;54.67;97246.84;4872246;29;20056;-66
2022/06/12 00:39:06;;;;;;;66.77;17.63;;;;;;;29.41;55.89;97248.31;4872402;29;20053;-66
2022/06/12 00:41:58;;;;;;;61.80;18.55;;;;;;;29.40;51.21;97254.63;4872459;29;20109;-66
2022/06/12 00:44:47;;;;;;;58.65;18.98;;;;;;;29.45;53.31;97263.66;4872263;29;20052;-67
2022/06/12 00:47:29;;;;;;;60.60;18.92;;;;;;;29.55;53.90;97268.56;4855507;29;20099;-66
2022/06/12 00:50:18;;;;;;;49.63;17.75;;;;;;;29.63;58.63;97261.22;4857555;29;20073;-66
2022/06/12 00:53:01;;;;;;;47.78;18.27;;;;;;;29.67;58.96;97261.66;4873470;29;20061;-66
2022/06/12 00:56:16;;;;;;;48.85;16.27;;;;;;;29.68;57.49;97273.91;4890486;29;20162;-66
2022/06/12 00:59:08;;;;;;;60.20;17.52;;;;;;;29.70;59.47;97282.47;4890042;29;20052;-66
2022/06/12 01:01:57;;;;;;;55.03;17.60;;;;;;;29.72;56.24;97285.75;4889258;29;20052;-66
2022/06/12 01:07:50;;;;;;;52.17;15.70;;;;;;;29.86;61.01;97279.44;4878419;29;20072;-67
2022/06/12 01:10:34;;;;;;;49.85;17.60;;;;;;;29.88;60.24;97285.38;4871912;29;20045;-66
2022/06/12 01:13:31;;;;;;;45.42;16.85;;;;;;;29.90;57.07;97303.78;4871680;29;20139;-66
2022/06/12 01:16:20;;;;;;;48.90;17.15;;;;;;;29.95;57.20;97299.50;4869605;29;20049;-66
2022/06/12 01:19:19;;;;;;;69.43;17.73;;;;;;;30.07;54.72;97320.19;4871261;29;20116;-66
2022/06/12 01:22:17;;;;;;;54.53;16.30;;;;;;;30.16;52.79;97319.78;4868786;29;20049;-66
2022/06/12 01:25:39;;;;;;;63.42;16.30;;;;;;;30.33;54.67;97315.69;4871589;29;20459;-66
2022/06/12 01:29:12;;;;;;;67.45;13.80;;;;;;;30.42;53.00;97330.41;4866783;29;20690;-66
2022/06/12 01:32:19;;;;;;;66.47;15.27;;;;;;;30.61;52.36;97343.94;4868261;29;20423;-66
2022/06/12 01:35:31;;;;;;;69.95;14.52;;;;;;;30.72;50.22;97340.69;4868922;29;20491;-67
2022/06/12 01:38:33;;;;;;;78.13;13.88;;;;;;;30.77;48.95;97349.66;4870507;29;20136;-67
2022/06/12 01:41:36;;;;;;;53.72;12.40;;;;;;;30.93;47.58;97359.06;4868740;29;20045;-66
2022/06/12 01:44:46;;;;;;;79.95;12.88;;;;;;;31.07;48.36;97357.22;4870549;29;20060;-66
2022/06/12 01:47:41;;;;;;;59.85;12.70;;;;;;;31.27;50.32;97362.50;4869814;29;20481;-66
2022/06/12 01:50:46;;;;;;;72.07;13.02;;;;;;;31.47;51.63;97361.41;4868264;29;20055;-66
2022/06/12 01:53:39;;;;;;;83.68;13.55;;;;;;;31.72;45.54;97369.53;4870677;29;20080;-67
2022/06/12 01:56:54;;;;;;;57.38;11.02;;;;;;;32.09;47.01;97372.44;4869089;29;20835;-66
2022/06/12 01:59:38;;;;;;;86.28;11.90;;;;;;;32.34;43.72;97377.81;4870289;29;20049;-66
2022/06/12 02:02:53;;;;;;;75.70;12.18;;;;;;;32.62;43.24;97371.03;4868888;29;20212;-66
2022/06/12 02:05:33;;;;;;;85.78;11.88;;;;;;;32.93;42.61;97372.84;4869806;29;20057;-68
2022/06/12 02:08:33;;;;;;;72.55;12.10;;;;;;;33.12;43.36;97370.22;4868025;29;20073;-66
2022/06/12 02:14:59;;;;;;;64.47;11.18;;;;;;;33.58;43.09;97369.72;4870201;29;20053;-66
2022/06/12 02:17:48;;;;;;;84.65;12.57;;;;;;;33.77;43.95;97372.16;4866761;29;20072;-66
2022/06/12 02:20:41;;;;;;;89.70;13.57;;;;;;;33.94;45.27;97361.66;4867952;29;20053;-67
2022/06/12 02:23:45;;;;;;;68.70;12.43;;;;;;;34.10;45.30;97358.34;4867103;29;20109;-67
2022/06/12 02:26:38;;;;;;;79.35;12.23;;;;;;;34.32;45.29;97379.28;4867717;29;20176;-67
2022/06/12 02:29:29;;;;;;;70.25;11.73;;;;;;;34.50;45.57;97369.28;4867469;29;20723;-67
2022/06/12 02:32:38;;;;;;;64.85;12.52;;;;;;;34.80;42.47;97371.91;4867570;29;20113;-67
2022/06/12 02:35:42;;;;;;;66.22;10.90;;;;;;;35.02;41.09;97387.41;4867905;29;20386;-67
2022/06/12 02:38:47;;;;;;;82.82;12.35;;;;;;;35.20;43.41;97393.44;4868865;29;20445;-68
2022/06/12 02:41:44;;;;;;;63.35;12.70;;;;;;;35.17;40.25;97401.97;4867819;29;20063;-67
2022/06/12 02:44:39;;;;;;;96.97;16.38;;;;;;;35.32;36.37;97398.81;4868326;29;20120;-67
2022/06/12 02:47:30;;;;;;;66.13;14.73;;;;;;;35.78;39.82;97402.47;4868056;29;20071;-68
2022/06/12 02:50:22;;;;;;;81.07;17.42;;;;;;;36.01;38.27;97397.84;4868914;29;20061;-67
2022/06/12 02:53:32;;;;;;;80.07;15.93;;;;;;;36.27;37.86;97401.84;4871669;29;20094;-68
2022/06/12 02:56:48;;;;;;;92.80;16.73;;;;;;;36.33;36.36;97405.44;4886909;29;20115;-67
2022/06/12 03:00:09;;;;;;;72.18;13.82;;;;;;;36.38;35.23;97410.91;4886933;29;20052;-67
2022/06/12 03:03:11;;;;;;;79.00;14.70;;;;;;;36.58;36.88;97405.88;4886019;29;20082;-67
2022/06/12 03:06:01;;;;;;;62.90;14.75;;;;;;;36.67;36.69;97407.13;4887135;29;20056;-67
2022/06/12 03:08:55;;;;;;;59.28;14.02;;;;;;;36.96;35.58;97426.66;4881661;29;20110;-67
2022/06/12 03:11:48;;;;;;;76.30;12.40;;;;;;;36.92;36.00;97424.72;4868574;29;20529;-68
2022/06/12 03:14:35;;;;;;;66.85;12.77;;;;;;;37.15;36.67;97424.56;4867399;29;20057;-67
2022/06/12 03:17:24;;;;;;;57.63;12.23;;;;;;;37.48;35.22;97424.50;4864096;29;20666;-68
2022/06/12 03:20:06;;;;;;;56.47;12.03;;;;;;;37.51;33.79;97432.09;4872614;29;20052;-68
2022/06/12 03:23:19;;;;;;;60.33;11.77;;;;;;;37.71;36.96;97430.72;4869968;29;20100;-67
2022/06/12 03:26:02;;;;;;;68.78;12.95;;;;;;;37.68;34.33;97428.53;4868957;29;20156;-67
2022/06/12 03:29:07;;;;;;;60.55;10.38;;;;;;;37.84;37.34;97433.84;4873135;29;20076;-66
2022/06/12 03:32:09;;;;;;;77.43;13.10;;;;;;;37.74;35.62;97436.44;4856412;29;20053;-67
2022/06/12 03:35:16;;;;;;;56.40;10.60;;;;;;;38.06;37.38;97436.56;4873137;29;20470;-67
2022/06/12 03:38:15;;;;;;;64.38;10.73;;;;;;;38.11;36.30;97442.00;4872216;29;20500;-68
2022/06/12 03:41:13;;;;;;;60.38;11.05;;;;;;;37.94;34.02;97438.53;4873555;29;20388;-67
2022/06/12 03:44:23;;;;;;;45.90;8.82;;;;;;;38.14;37.18;97436.13;4872447;29;20061;-67
2022/06/12 03:47:23;;;;;;;60.95;9.80;;;;;;;37.89;36.77;97441.19;4872441;29;20548;-68
2022/06/12 03:50:53;;;;;;;62.08;9.82;;;;;;;37.84;34.32;97452.69;4858949;29;20136;-67
2022/06/12 03:53:53;;;;;;;62.00;11.23;;;;;;;37.78;35.19;97455.56;4880161;29;20144;-69
2022/06/12 04:00:08;;;;;;;54.13;11.50;;;;;;;37.85;35.49;97462.38;4891389;29;20100;-66
2022/06/12 04:02:58;;;;;;;41.03;9.57;;;;;;;38.06;37.77;97463.47;4890972;29;20084;-67
2022/06/12 04:06:02;;;;;;;53.60;9.55;;;;;;;37.80;33.19;97470.38;4877276;29;20078;-67
2022/06/12 04:08:56;;;;;;;50.45;10.05;;;;;;;38.01;36.48;97458.00;4891389;29;20060;-68
2022/06/12 04:11:55;;;;;;;38.13;8.70;;;;;;;38.14;36.21;97451.47;4891345;29;20052;-68
2022/06/12 04:14:47;;;;;;;50.45;9.00;;;;;;;38.41;35.03;97462.22;4890635;29;20048;-67
2022/06/12 04:17:42;;;;;;;55.08;8.38;;;;;;;38.43;36.27;97463.59;4889157;29;20107;-68
2022/06/12 04:20:25;;;;;;;54.42;8.15;;;;;;;38.71;33.91;97459.88;4889650;29;20064;-67
2022/06/12 04:23:23;;;;;;;31.65;8.13;;;;;;;38.64;31.59;97472.72;4890975;29;20056;-68
2022/06/12 04:26:34;;;;;;;53.85;9.65;;;;;;;38.99;32.19;97459.59;4876066;29;20143;-66
2022/06/12 04:29:30;;;;;;;46.22;8.88;;;;;;;38.95;34.62;97469.25;4890806;29;20056;-67
2022/06/12 04:32:18;;;;;;;44.33;11.25;;;;;;;39.19;34.49;97460.81;4876116;29;20358;-65
2022/06/12 04:35:00;;;;;;;47.75;11.05;;;;;;;39.27;32.90;97460.34;4891233;29;20111;-67
2022/06/12 04:37:50;;;;;;;46.75;9.93;;;;;;;39.58;33.35;97459.47;4890685;29;20052;-67
2022/06/12 04:40:32;;;;;;;;;;;;;;;39.37;32.89;97452.28;4891200;29;20056;-67
2022/06/12 04:43:22;;;;;;;43.08;9.15;;;;;;;39.73;37.76;97456.84;4891052;29;19927;-68
2022/06/12 04:46:04;;;;;;;;;;;;;;;39.45;35.23;97465.31;4891430;29;20048;-67
2022/06/12 04:48:56;;;;;;;45.53;8.45;;;;;;;39.38;33.08;97465.56;4853163;29;19948;-67
2022/06/12 04:51:38;;;;;;;37.67;7.97;;;;;;;39.40;31.08;97468.00;4853930;29;20141;-67
2022/06/12 04:54:28;;;;;;;40.47;7.90;;;;;;;39.08;33.07;97461.81;4879621;29;22793;-65
2022/06/12 04:57:12;;;;;;;45.70;7.65;;;;;;;39.14;33.73;97463.47;4890512;29;20089;-65
2022/06/12 05:00:00;;;;;;;56.40;8.93;;;;;;;39.49;34.16;97471.00;4890538;29;20055;-66
2022/06/12 05:02:42;;;;;;;37.13;7.40;;;;;;;39.24;32.88;97469.75;4890201;29;20063;-65
2022/06/12 05:05:38;;;;;;;35.70;7.70;;;;;;;39.48;37.17;97464.81;4870974;29;20148;-65
2022/06/12 05:08:27;;;;;;;39.83;7.88;;;;;;;39.31;32.65;97470.34;4868659;29;20494;-66
2022/06/12 05:11:16;;;;;;;35.97;7.70;;;;;;;39.46;34.84;97466.94;4834395;29;20081;-64
2022/06/12 05:13:58;;;;;;;39.75;7.10;;;;;;;39.88;36.20;97463.41;4840489;29;20053;-65
2022/06/12 05:16:55;;;;;;;35.10;7.70;;;;;;;39.76;35.59;97459.00;4853762;29;20064;-66
2022/06/12 05:19:40;;;;;;;42.97;7.60;;;;;;;39.59;32.72;97460.28;4850313;29;20659;-65
2022/06/12 05:22:29;;;;;;;43.10;6.63;;;;;;;39.34;33.21;97459.03;4842742;29;20338;-65
2022/06/12 05:25:25;;;;;;;37.70;6.07;;;;;;;39.43;33.05;97463.97;4834412;29;20058;-65
2022/06/12 05:28:03;;;;;;;34.58;6.40;;;;;;;39.75;35.39;97459.28;4835087;29;20064;-65
2022/06/12 05:30:52;;;;;;;30.77;6.00;;;;;;;39.92;32.86;97456.41;4849733;29;20059;-65
2022/06/12 05:33:41;;;;;;;26.80;6.05;;;;;;;39.96;33.26;97454.81;4852607;29;20057;-65
2022/06/12 05:36:24;;;;;;;26.35;6.63;;;;;;;40.01;35.64;97462.91;4852755;29;20081;-64
2022/06/12 05:39:13;;;;;;;40.47;6.90;;;;;;;39.60;32.56;97457.31;4852543;29;20085;-65
2022/06/12 05:41:55;;;;;;;35.92;6.63;;;;;;;39.94;34.91;97460.47;4853468;29;20073;-65
2022/06/12 05:44:45;;;;;;;32.75;5.53;;;;;;;39.62;32.13;97468.66;4852903;29;20053;-65
2022/06/12 05:47:27;;;;;;;28.80;6.28;;;;;;;39.51;32.52;97466.19;4852512;29;20050;-65
2022/06/12 05:50:16;;;;;;;40.35;7.03;;;;;;;39.92;36.58;97464.50;4851610;29;20153;-65
2022/06/12 05:52:59;;;;;;;35.07;6.80;;;;;;;39.92;35.58;97459.09;4851767;29;20057;-64
2022/06/12 05:55:48;;;;;;;36.28;5.55;;;;;;;39.70;34.56;97456.56;4865973;29;20690;-65
2022/06/12 05:58:37;;;;;;;47.05;8.23;;;;;;;39.37;32.84;97453.13;4869824;29;20359;-62
2022/06/12 06:01:20;;;;;;;;;;;;;;;39.70;35.84;97451.16;4863552;29;20056;-64
2022/06/12 06:04:16;;;;;;;26.85;6.35;;;;;;;40.03;35.74;97450.78;4852372;29;19975;-64
2022/06/12 06:07:05;;;;;;;28.95;5.47;;;;;;;40.03;34.78;97455.38;4843576;29;20061;-65
2022/06/12 06:09:54;;;;;;;31.80;6.45;;;;;;;39.61;34.25;97447.34;4833963;29;20631;-62
2022/06/12 06:12:36;;;;;;;31.63;6.35;;;;;;;39.85;35.63;97445.84;4837312;29;20486;-63
2022/06/12 06:15:28;;;;;;;39.97;7.40;;;;;;;39.86;33.93;97438.56;4839441;29;20061;-63
2022/06/12 06:18:10;;;;;;;28.92;5.95;;;;;;;39.61;33.76;97431.16;4842563;29;20057;-62
2022/06/12 06:20:59;;;;;;;34.92;6.22;;;;;;;39.17;33.12;97436.00;4844289;29;20199;-63
2022/06/12 06:23:43;;;;;;;34.45;5.78;;;;;;;39.42;34.52;97428.13;4842598;29;20069;-62
2022/06/12 06:26:31;;;;;;;35.03;6.15;;;;;;;39.69;33.79;97426.06;4849097;29;20137;-64
2022/06/12 06:29:13;;;;;;;26.33;4.47;;;;;;;39.67;34.57;97422.81;4836023;29;20078;-63
2022/06/12 06:32:02;;;;;;;25.30;5.65;;;;;;;39.70;32.96;97421.50;4833667;29;20166;-64
2022/06/12 06:34:44;;;;;;;28.47;5.80;;;;;;;39.73;33.09;97419.09;4837662;29;20050;-64
2022/06/12 06:37:33;;;;;;;29.40;5.60;;;;;;;39.57;34.77;97416.59;4849975;29;20399;-63
2022/06/12 06:40:17;;;;;;;32.28;5.53;;;;;;;39.43;34.70;97413.56;4850879;29;20106;-63
2022/06/12 06:43:06;;;;;;;29.13;6.03;;;;;;;39.26;33.81;97402.09;4852015;29;20053;-62
2022/06/12 06:48:55;;;;;;;33.28;6.30;;;;;;;39.54;37.39;97393.63;4832736;29;20114;-63
2022/06/12 06:51:37;;;;;;;42.20;7.43;;;;;;;39.59;36.90;97393.66;4834431;29;20137;-63
2022/06/12 06:54:26;;;;;;;40.90;8.15;;;;;;;39.55;34.53;97394.44;4849567;29;20130;-62
2022/06/12 06:57:14;;;;;;;39.83;6.10;;;;;;;39.75;34.52;97389.16;4855197;29;20824;-64
2022/06/12 07:00:02;;;;;;;40.50;7.68;;;;;;;39.81;35.46;97388.09;4855248;29;20053;-63
2022/06/12 07:02:44;;;;;;;34.08;6.18;;;;;;;39.58;36.16;97388.53;4855145;29;20140;-63
2022/06/12 07:05:41;;;;;;;41.63;6.38;;;;;;;39.54;34.99;97395.53;4874616;29;20056;-63
2022/06/12 07:08:37;;;;;;;34.75;6.40;;;;;;;39.54;36.02;97393.63;4892372;29;20052;-63
2022/06/12 07:11:27;;;;;;;39.80;6.80;;;;;;;39.23;35.48;97397.22;4886979;29;20251;-63
2022/06/12 07:14:09;;;;;;;39.72;6.82;;;;;;;39.34;36.52;97390.81;4872634;29;20456;-62
2022/06/12 07:16:59;;;;;;;37.45;6.32;;;;;;;39.51;39.59;97393.38;4873469;29;20105;-63
2022/06/12 07:19:41;;;;;;;45.40;6.95;;;;;;;39.51;39.97;97382.59;4863994;29;20373;-63
2022/06/12 07:22:30;;;;;;;48.03;8.15;;;;;;;39.56;38.18;97388.81;4868866;29;20053;-62
2022/06/12 07:25:14;;;;;;;63.42;10.40;;;;;;;39.50;38.49;97387.16;4871361;29;20156;-61
2022/06/12 07:28:03;;;;;;;51.33;8.27;;;;;;;39.52;38.67;97385.00;4872103;29;20108;-61
2022/06/12 07:30:50;;;;;;;44.65;7.57;;;;;;;39.57;39.42;97365.34;4870316;29;20165;-62
2022/06/12 07:33:38;;;;;;;32.95;7.30;;;;;;;39.65;39.48;97378.31;4863943;29;20559;-61
2022/06/12 07:36:27;;;;;;;36.33;6.88;;;;;;;39.57;37.72;97376.94;4870749;29;20112;-62
2022/06/12 07:39:23;;;;;;;47.90;8.05;;;;;;;39.52;38.98;97368.00;4871546;29;20140;-62
2022/06/12 07:42:12;;;;;;;34.63;6.40;;;;;;;39.55;37.35;97371.00;4872345;29;20049;-63
2022/06/12 07:44:54;;;;;;;39.38;6.25;;;;;;;39.53;36.98;97370.44;4864064;29;20068;-62
2022/06/12 07:47:44;;;;;;;45.83;6.78;;;;;;;39.54;38.35;97369.38;4870517;29;20464;-62
2022/06/12 07:50:35;;;;;;;46.47;7.03;;;;;;;39.63;38.95;97369.69;4874218;29;20045;-62
2022/06/12 07:53:20;;;;;;;44.70;7.15;;;;;;;39.66;38.03;97369.16;4873814;29;20045;-65
2022/06/12 07:56:09;;;;;;;54.33;9.15;;;;;;;39.55;35.67;97362.91;4871429;29;20063;-62
2022/06/12 07:58:51;;;;;;;44.80;8.48;;;;;;;39.61;38.70;97363.72;4871646;29;20049;-62
2022/06/12 08:01:42;;;;;;;54.97;8.77;;;;;;;39.50;34.38;97360.19;4873362;29;20361;-62
2022/06/12 08:04:24;;;;;;;39.80;8.68;;;;;;;39.47;37.88;97349.94;4865691;29;20048;-72
2022/06/12 08:07:20;;;;;;;44.10;7.43;;;;;;;39.44;37.72;97349.63;4871174;29;20081;-72
2022/06/12 08:10:11;;;;;;;56.20;9.57;;;;;;;39.49;36.51;97352.38;4876189;29;20501;-70
2022/06/12 08:12:57;;;;;;;58.42;9.95;;;;;;;39.30;35.58;97358.19;4877352;29;20537;-70
2022/06/12 08:15:48;;;;;;;50.60;8.57;;;;;;;39.37;36.61;97344.44;4853915;29;20049;-70
2022/06/12 08:18:31;;;;;;;41.92;8.02;;;;;;;39.40;36.37;97334.00;4869228;29;20059;-71
2022/06/12 08:21:21;;;;;;;55.85;8.00;;;;;;;39.42;37.95;97331.03;4870724;29;20065;-74
2022/06/12 08:24:04;;;;;;;;;;;;;;;39.35;36.24;97327.75;4851961;29;20049;-70
2022/06/12 08:26:54;;;;;;;46.90;8.77;;;;;;;39.33;38.09;97327.19;4858308;29;20380;-73
2022/06/12 08:29:36;;;;;;;;;;;;;;;39.27;36.81;97320.94;4853141;29;20089;-69
2022/06/12 08:32:25;;;;;;;40.13;6.80;;;;;;;39.20;36.65;97317.69;4848564;29;20414;-71
2022/06/12 08:35:24;;;;;;;55.22;7.70;;;;;;;39.30;38.74;97304.25;4867578;29;20057;-70
2022/06/12 08:38:12;;;;;;;40.85;6.65;;;;;;;39.13;37.78;97305.53;4868005;29;20060;-67
2022/06/12 08:41:16;;;;;;;32.42;6.97;;;;;;;39.33;37.31;97309.13;4867415;29;20064;-68
2022/06/12 08:44:16;;;;;;;34.10;6.55;;;;;;;39.39;39.08;97310.00;4872776;29;20633;-68
2022/06/12 08:47:09;;;;;;;42.15;6.97;;;;;;;39.46;40.63;97304.34;4854471;29;20069;-67
2022/06/12 08:50:13;;;;;;;36.22;7.15;;;;;;;39.44;40.67;97295.69;4872390;29;20485;-67
2022/06/12 08:53:31;;;;;;;40.72;7.35;;;;;;;39.34;39.08;97296.47;4874847;29;20573;-69
2022/06/12 08:56:19;;;;;;;49.40;7.97;;;;;;;39.28;40.00;97289.41;4889478;29;20505;-68
2022/06/12 08:59:43;;;;;;;39.70;7.10;;;;;;;39.18;39.98;97284.00;4877102;29;20473;-68
2022/06/12 09:02:29;;;;;;;53.20;8.93;;;;;;;39.13;37.61;97283.97;4872340;29;20081;-68
2022/06/12 09:05:20;;;;;;;;;;;;;;;39.14;40.57;97269.41;4872508;29;20056;-69
2022/06/12 09:08:34;;;;;;;41.50;7.45;;;;;;;39.04;38.79;97268.28;4867240;29;19931;-68
2022/06/12 09:11:34;;;;;;;36.95;7.43;;;;;;;38.88;42.23;97265.75;4868931;29;20044;-69
2022/06/12 09:14:35;;;;;;;37.45;7.00;;;;;;;39.06;38.60;97270.72;4850476;29;20109;-68
2022/06/12 09:17:35;;;;;;;49.05;6.93;;;;;;;39.04;36.96;97262.91;4867980;29;20155;-69
2022/06/12 09:20:52;;;;;;;30.40;5.65;;;;;;;38.79;40.35;97262.78;4870861;29;20124;-69
2022/06/12 09:23:28;;;;;;;32.22;6.75;;;;;;;38.52;42.44;97248.59;4871416;29;20099;-68
2022/06/12 09:26:47;;;;;;;31.10;6.00;;;;;;;38.37;44.39;97248.47;4869341;29;20049;-70
2022/06/12 09:29:41;;;;;;;38.47;6.47;;;;;;;38.38;40.79;97236.63;4867863;29;20065;-69
2022/06/12 09:32:38;;;;;;;40.50;6.30;;;;;;;38.26;42.75;97232.22;4870995;29;20049;-68
2022/06/12 09:35:43;;;;;;;33.95;5.72;;;;;;;38.13;42.78;97234.56;4871174;29;20044;-68
2022/06/12 09:38:56;;;;;;;42.20;6.60;;;;;;;38.13;38.66;97232.69;4870398;29;20056;-68
2022/06/12 09:42:30;;;;;;;36.70;6.07;;;;;;;38.04;42.91;97230.69;4863076;29;20130;-68
2022/06/12 09:45:39;;;;;;;25.73;5.53;;;;;;;38.10;40.17;97233.19;4830790;29;20066;-69
2022/06/12 09:49:02;;;;;;;47.95;7.47;;;;;;;38.02;42.43;97222.06;4831184;29;20064;-69
2022/06/12 09:51:51;;;;;;;45.70;7.13;;;;;;;37.99;43.36;97220.72;4852572;29;20054;-68
2022/06/12 09:54:46;;;;;;;44.90;6.85;;;;;;;37.90;44.35;97216.88;4880038;29;20112;-67
2022/06/12 09:57:52;;;;;;;43.15;6.38;;;;;;;37.81;43.94;97208.44;4888558;29;20060;-69
2022/06/12 10:00:42;;;;;;;34.45;6.82;;;;;;;37.75;43.80;97203.28;4888406;29;20054;-68
2022/06/12 10:03:50;;;;;;;34.25;6.00;;;;;;;37.81;41.95;97199.56;4871679;29;20060;-67
2022/06/12 10:06:49;;;;;;;43.20;6.00;;;;;;;37.91;39.43;97196.97;4853844;29;20053;-68
2022/06/12 10:09:41;;;;;;;43.75;8.77;;;;;;;37.94;40.04;97196.44;4853271;29;20748;-68
2022/06/12 10:12:47;;;;;;;37.72;6.03;;;;;;;37.84;41.79;97193.66;4562242;29;9159015;-67
2022/06/12 10:15:44;;;;;;;34.33;7.35;;;;;;;37.57;43.52;97188.31;4870912;29;20104;-68
2022/06/12 10:18:41;;;;;;;35.92;6.20;;;;;;;37.58;43.08;97173.00;4871062;29;20069;-69
2022/06/12 10:21:35;;;;;;;40.35;7.53;;;;;;;37.84;41.00;97181.03;4871580;29;20053;-68
2022/06/12 10:24:25;;;;;;;32.08;5.38;;;;;;;37.70;42.01;97171.78;4872414;29;20053;-68
2022/06/12 10:27:12;;;;;;;41.92;5.85;;;;;;;37.74;39.52;97170.22;4870847;29;20041;-69
2022/06/12 10:30:05;;;;;;;25.77;5.95;;;;;;;37.64;43.17;97163.91;4857006;29;20144;-67
2022/06/12 10:32:52;;;;;;;40.40;6.32;;;;;;;37.61;40.32;97159.03;4871202;29;20061;-70
2022/06/12 10:35:52;;;;;;;38.97;5.80;;;;;;;37.59;41.16;97161.16;4854226;29;20049;-69
2022/06/12 10:38:36;;;;;;;44.90;7.50;;;;;;;37.85;38.80;97160.31;4871179;29;20053;-67
2022/06/12 10:41:34;;;;;;;40.63;6.07;;;;;;;37.86;40.47;97161.94;4870357;29;20061;-69
2022/06/12 10:44:44;;;;;;;41.55;7.97;;;;;;;38.14;39.33;97163.53;4853335;29;20124;-68
2022/06/12 10:47:48;;;;;;;51.60;7.00;;;;;;;38.08;40.14;97153.78;4869836;29;20126;-67
2022/06/12 10:50:52;;;;;;;37.13;6.82;;;;;;;37.94;41.31;97156.09;4882678;29;20319;-68
2022/06/12 10:53:37;;;;;;;29.67;6.43;;;;;;;37.83;44.31;97146.34;4860909;29;20048;-69
2022/06/12 10:56:45;;;;;;;50.38;8.88;;;;;;;37.80;43.83;97136.09;4888668;29;20573;-68
2022/06/12 10:59:35;;;;;;;38.45;6.47;;;;;;;37.65;44.06;97135.97;4872770;29;20048;-69
2022/06/12 11:02:36;;;;;;;33.60;6.68;;;;;;;37.46;44.86;97130.94;4870471;29;20053;-69
2022/06/12 11:05:44;;;;;;;55.40;7.30;;;;;;;37.44;43.37;97118.81;4869754;29;20053;-70
2022/06/12 11:08:36;;;;;;;35.08;6.70;;;;;;;37.34;46.36;97116.88;4869834;29;20061;-69
2022/06/12 11:11:56;;;;;;;47.40;7.05;;;;;;;37.31;46.03;97119.25;4865598;29;20058;-68
2022/06/12 11:15:25;;;;;;;56.67;9.32;;;;;;;37.71;41.42;97121.50;4861039;29;20053;-67
2022/06/12 11:18:41;;;;;;;44.10;7.18;;;;;;;37.61;42.95;97121.41;4851076;29;20057;-69
2022/06/12 11:21:34;;;;;;;52.45;9.15;;;;;;;37.71;41.60;97121.50;4870037;29;20425;-70
2022/06/12 11:24:31;;;;;;;42.28;7.57;;;;;;;37.64;41.39;97115.53;4870298;29;20065;-70
2022/06/12 11:27:17;;;;;;;43.40;7.10;;;;;;;37.69;40.88;97118.25;4869662;29;20052;-69
2022/06/12 11:30:46;;;;;;;43.58;8.05;;;;;;;37.73;39.80;97108.59;4870591;29;20069;-72
2022/06/12 11:33:56;;;;;;;62.63;8.43;;;;;;;38.05;39.24;97106.72;4849658;29;20075;-71
2022/06/12 11:37:12;;;;;;;47.97;7.25;;;;;;;37.80;39.80;97106.50;4869759;29;20141;-70
2022/06/12 11:40:11;;;;;;;57.20;10.10;;;;;;;37.67;40.62;97097.00;4873104;29;20041;-71
2022/06/12 11:43:22;;;;;;;61.90;9.40;;;;;;;37.59;40.42;97100.19;4851446;29;20061;-71
2022/06/12 11:46:25;;;;;;;71.50;10.20;;;;;;;37.69;39.87;97094.03;4863467;29;20072;-68
2022/06/12 11:49:15;;;;;;;55.17;8.02;;;;;;;37.79;39.14;97086.88;4873171;29;20044;-69
2022/06/12 11:52:20;;;;;;;60.28;10.18;;;;;;;37.90;38.92;97082.38;4864313;29;20049;-69
2022/06/12 11:55:30;;;;;;;51.20;7.82;;;;;;;37.84;39.48;97078.00;4872488;29;20053;-69
2022/06/12 11:59:14;;;;;;;44.78;8.23;;;;;;;37.87;37.81;97077.50;4865435;29;20053;-72
2022/06/12 12:02:13;;;;;;;52.50;7.90;;;;;;;37.91;39.71;97073.25;4812612;29;20058;-70
2022/06/12 12:05:23;;;;;;;47.80;7.85;;;;;;;37.89;39.90;97070.81;4869705;29;20065;-74
2022/06/12 12:15:54;;;;;;;50.22;9.40;;;;;;;37.82;39.68;97070.22;4839249;29;20041;-64
2022/06/12 12:19:03;;;;;;;48.10;8.38;;;;;;;37.86;39.49;97070.50;4847589;29;20049;-64
2022/06/12 12:21:52;;;;;;;39.45;7.15;;;;;;;37.79;39.63;97059.97;4847214;29;20132;-64
2022/06/12 12:24:51;;;;;;;45.38;9.13;;;;;;;37.71;39.69;97067.72;4852468;29;20473;-64
2022/06/12 12:27:48;;;;;;;48.15;8.63;;;;;;;37.62;39.92;97071.94;4840740;29;20076;-66
2022/06/12 12:30:48;;;;;;;43.83;7.43;;;;;;;37.52;40.64;97069.97;4511156;29;9999898;-63
2022/06/12 12:33:24;;;;;;;55.35;8.45;;;;;;;37.49;39.00;97063.25;4840663;29;21180;-63
2022/06/12 12:42:51;;;;;;;44.00;8.07;;;;;;;37.28;39.52;97066.03;4844388;29;20053;-64
2022/06/12 12:45:31;;;;;;;37.15;6.95;;;;;;;37.17;38.85;97070.50;4851998;29;20053;-62
2022/06/12 12:48:23;;;;;;;52.17;6.60;;;;;;;37.15;36.99;97078.81;4845640;29;20057;-63
2022/06/12 12:51:05;;;;;;;36.90;6.47;;;;;;;37.14;36.85;97076.34;4848138;29;20160;-65
2022/06/12 12:54:17;;;;;;;38.75;6.93;;;;;;;37.13;36.20;97083.59;4847615;29;20053;-67
2022/06/12 12:57:08;;;;;;;54.53;10.00;;;;;;;37.15;35.03;97075.31;4854759;29;20132;-65
2022/06/12 12:59:57;;;;;;;50.45;6.88;;;;;;;37.16;34.42;97096.53;4831914;29;20106;-63
2022/06/12 13:02:46;;;;;;;33.10;6.80;;;;;;;37.24;33.76;97097.97;4834131;29;20057;-63
2022/06/12 13:05:47;;;;;;;33.83;6.63;;;;;;;37.20;34.81;97098.72;4846134;29;20525;-64
2022/06/12 13:08:59;;;;;;;43.47;6.32;;;;;;;37.15;35.19;97102.16;4847507;29;20451;-64
2022/06/12 13:12:13;;;;;;;42.95;7.05;;;;;;;37.17;35.53;97106.22;4848688;29;20480;-65
2022/06/12 13:14:58;;;;;;;38.40;6.63;;;;;;;37.13;34.52;97109.66;4841683;29;20076;-63
2022/06/12 13:18:07;;;;;;;45.58;6.57;;;;;;;37.14;35.13;97113.97;4858881;29;20151;-64
2022/06/12 13:21:11;;;;;;;49.63;8.50;;;;;;;37.11;35.21;97111.78;4849077;29;20343;-65
2022/06/12 13:24:03;;;;;;;50.28;8.30;;;;;;;37.09;35.37;97113.91;4849162;29;20481;-63
2022/06/12 13:26:45;;;;;;;46.75;7.75;;;;;;;37.07;36.11;97116.84;4850821;29;20529;-62
2022/06/12 13:29:34;;;;;;;46.22;9.80;;;;;;;37.04;35.05;97116.50;4851894;29;20053;-64
2022/06/12 13:32:35;;;;;;;39.25;9.27;;;;;;;36.93;36.72;97121.00;4842284;29;20751;-67
2022/06/12 13:36:02;;;;;;;47.90;9.30;;;;;;;36.83;37.13;97128.09;4492323;29;9999955;-66
2022/06/12 13:39:05;;;;;;;49.60;8.23;;;;;;;36.73;37.50;97129.59;4845729;29;20117;-64
2022/06/12 13:41:49;;;;;;;41.40;8.05;;;;;;;36.78;36.64;97132.38;4857640;29;20044;-65
2022/06/12 13:44:38;;;;;;;38.58;7.18;;;;;;;36.57;38.35;97133.13;4847380;29;20049;-64
2022/06/12 13:47:41;;;;;;;40.65;9.10;;;;;;;36.29;39.67;97141.38;4846919;29;20049;-65
2022/06/12 13:50:56;;;;;;;59.83;11.45;;;;;;;36.09;40.44;97151.75;4846125;29;20128;-63
2022/06/12 13:53:48;;;;;;;37.13;10.98;;;;;;;35.95;39.55;97154.78;4847274;29;20056;-64
2022/06/12 13:56:43;;;;;;;54.80;12.65;;;;;;;35.79;40.95;97158.28;4847168;29;20141;-65
2022/06/12 13:59:46;;;;;;;60.22;13.20;;;;;;;35.80;40.13;97170.63;4856697;29;20388;-63
2022/06/12 14:02:35;;;;;;;56.20;10.98;;;;;;;35.82;37.65;97173.91;4851110;29;20057;-67